Time;durP1;ratioP1;P1;durP2;ratioP2;P2;SDS_P1;SDS_P2;PMS_P1;PMS_P2;Temp;Humidity;BMP_temperature;BMP_pressure;BME280_temperature;BME280_humidity;BME280_pressure;Samples;Min_cycle;Max_cycle;Signal;HPM_P1;HPM_P2
2023/03/20 00:00:52;;;;;;;8.77;7.87;;;;;;;;;;5004895;28;20588;-55
2023/03/20 00:03:18;;;;;;;8.20;6.93;;;;;;;;;;5006802;28;20175;-55
2023/03/20 00:05:44;;;;;;;8.30;7.33;;;;;;;;;;5012411;28;20210;-55
2023/03/20 00:08:11;;;;;;;8.20;7.40;;;;;;;;;;5000166;28;20560;-55
2023/03/20 00:10:41;;;;;;;8.33;7.47;;;;;;;;;;5009239;28;20171;-55
2023/03/20 00:13:13;;;;;;;7.90;7.10;;;;;;;;;;5009012;28;20700;-55
2023/03/20 00:15:41;;;;;;;8.23;7.37;;;;;;;;;;5006187;28;20206;-55
2023/03/20 00:18:15;;;;;;;8.27;6.87;;;;;;;;;;5006546;28;20248;-55
2023/03/20 00:20:41;;;;;;;7.53;6.63;;;;;;;;;;5008301;28;20694;-55
2023/03/20 00:23:07;;;;;;;8.07;7.27;;;;;;;;;;5010067;28;21109;-55
2023/03/20 00:25:35;;;;;;;8.77;6.37;;;;;;;;;;5010639;28;20206;-56
2023/03/20 00:28:01;;;;;;;7.70;6.90;;;;;;;;;;5010648;28;20190;-55
2023/03/20 00:30:30;;;;;;;7.03;6.33;;;;;;;;;;5010622;28;20175;-55
2023/03/20 00:32:57;;;;;;;8.10;7.07;;;;;;;;;;5008347;28;20186;-55
2023/03/20 00:35:28;;;;;;;7.60;6.20;;;;;;;;;;5011672;28;20221;-55
2023/03/20 00:37:54;;;;;;;7.57;6.53;;;;;;;;;;5010250;28;20552;-56
2023/03/20 00:40:21;;;;;;;7.73;6.93;;;;;;;;;;5012522;28;20630;-55
2023/03/20 00:42:53;;;;;;;7.27;6.57;;;;;;;;;;5009413;28;20245;-56
2023/03/20 00:45:20;;;;;;;7.70;6.30;;;;;;;;;;5010321;28;20258;-55
2023/03/20 00:47:50;;;;;;;7.47;6.47;;;;;;;;;;5006925;28;20182;-55
2023/03/20 00:50:36;;;;;;;8.60;6.70;;;;;;;;;;5011352;28;20174;-55
2023/03/20 00:53:02;;;;;;;8.57;6.60;;;;;;;;;;5006343;28;20171;-56
2023/03/20 00:55:29;;;;;;;7.87;7.07;;;;;;;;;;5008605;28;20183;-55
2023/03/20 00:57:56;;;;;;;7.13;6.00;;;;;;;;;;5009465;28;20552;-56
2023/03/20 01:00:25;;;;;;;8.63;7.73;;;;;;;;;;5010331;28;20572;-55
2023/03/20 01:02:52;;;;;;;8.87;6.47;;;;;;;;;;5009736;28;20186;-55
2023/03/20 01:05:18;;;;;;;7.67;6.60;;;;;;;;;;5008204;28;20210;-55
2023/03/20 01:07:45;;;;;;;8.23;7.20;;;;;;;;;;5012048;28;20179;-55
2023/03/20 01:10:11;;;;;;;7.43;6.70;;;;;;;;;;5014014;28;20217;-55
2023/03/20 01:12:41;;;;;;;6.97;6.27;;;;;;;;;;5011540;28;20670;-55
2023/03/20 01:15:24;;;;;;;8.37;6.23;;;;;;;;;;5005374;28;20217;-55
2023/03/20 01:17:51;;;;;;;8.83;6.53;;;;;;;;;;5009736;28;20676;-55
2023/03/20 01:20:22;;;;;;;6.63;5.40;;;;;;;;;;5009502;28;20641;-56
2023/03/20 01:22:48;;;;;;;7.17;6.40;;;;;;;;;;5009958;28;20186;-55
2023/03/20 01:25:15;;;;;;;8.17;6.93;;;;;;;;;;5011671;28;20206;-55
2023/03/20 01:27:41;;;;;;;7.30;6.57;;;;;;;;;;5009337;28;20186;-55
2023/03/20 01:30:26;;;;;;;7.00;6.30;;;;;;;;;;5007822;28;20265;-55
2023/03/20 01:32:52;;;;;;;8.43;6.57;;;;;;;;;;5005502;28;20178;-55
2023/03/20 01:35:20;;;;;;;9.40;7.00;;;;;;;;;;5008366;28;20595;-55
2023/03/20 01:37:47;;;;;;;7.10;6.40;;;;;;;;;;5007956;28;20182;-55
2023/03/20 01:40:27;;;;;;;7.40;6.60;;;;;;;;;;5012214;28;20213;-55
2023/03/20 01:42:53;;;;;;;6.83;6.00;;;;;;;;;;5010476;28;20681;-55
2023/03/20 01:45:22;;;;;;;7.13;6.43;;;;;;;;;;5008678;28;20201;-55
2023/03/20 01:47:48;;;;;;;9.77;7.50;;;;;;;;;;5006955;28;20183;-55
2023/03/20 01:50:25;;;;;;;7.17;6.47;;;;;;;;;;5010245;28;20186;-55
2023/03/20 01:52:54;;;;;;;6.73;6.03;;;;;;;;;;5009287;28;20178;-55
2023/03/20 01:55:21;;;;;;;7.03;6.33;;;;;;;;;;5008056;28;20206;-55
2023/03/20 01:57:47;;;;;;;7.17;6.47;;;;;;;;;;5007443;28;20202;-55
2023/03/20 02:00:15;;;;;;;6.33;5.73;;;;;;;;;;5009107;28;20510;-55
2023/03/20 02:02:42;;;;;;;7.27;6.47;;;;;;;;;;5007439;28;20193;-53
2023/03/20 02:05:09;;;;;;;7.23;6.53;;;;;;;;;;5005547;28;20202;-53
2023/03/20 02:07:36;;;;;;;6.40;5.80;;;;;;;;;;5009115;28;20190;-53
2023/03/20 02:10:04;;;;;;;6.90;5.87;;;;;;;;;;5008954;28;20182;-53
2023/03/20 02:12:30;;;;;;;7.77;6.53;;;;;;;;;;5006925;28;20230;-54
2023/03/20 02:14:57;;;;;;;7.87;6.20;;;;;;;;;;5017910;28;20191;-55
2023/03/20 02:17:23;;;;;;;6.27;5.67;;;;;;;;;;5007554;28;20179;-55
2023/03/20 02:19:52;;;;;;;7.53;6.20;;;;;;;;;;5008248;28;20686;-55
2023/03/20 02:22:18;;;;;;;6.77;6.07;;;;;;;;;;5009618;28;20186;-55
2023/03/20 02:24:54;;;;;;;6.40;5.77;;;;;;;;;;5008101;28;20179;-55
2023/03/20 02:27:23;;;;;;;7.07;5.70;;;;;;;;;;5009305;28;20641;-55
2023/03/20 02:29:52;;;;;;;6.70;6.00;;;;;;;;;;5009121;28;20197;-55
2023/03/20 02:32:24;;;;;;;7.23;6.10;;;;;;;;;;5009018;28;20182;-55
2023/03/20 02:35:14;;;;;;;7.47;5.93;;;;;;;;;;5008406;28;20178;-55
2023/03/20 02:37:59;;;;;;;6.87;6.17;;;;;;;;;;5008222;28;20217;-55
2023/03/20 02:40:44;;;;;;;6.07;5.43;;;;;;;;;;5009440;28;20657;-55
2023/03/20 02:43:20;;;;;;;6.43;5.83;;;;;;;;;;5016299;28;20593;-55
2023/03/20 02:45:54;;;;;;;6.83;6.13;;;;;;;;;;5005903;28;20208;-55
2023/03/20 02:48:26;;;;;;;6.70;5.87;;;;;;;;;;5006604;28;20233;-55
2023/03/20 02:51:00;;;;;;;6.97;5.87;;;;;;;;;;5008310;28;20185;-55
2023/03/20 02:53:29;;;;;;;7.37;5.73;;;;;;;;;;5005993;28;20197;-54
2023/03/20 02:56:12;;;;;;;6.73;6.10;;;;;;;;;;5003612;28;20232;-55
2023/03/20 02:58:38;;;;;;;7.37;5.93;;;;;;;;;;5006201;28;20194;-55
2023/03/20 03:01:10;;;;;;;6.20;5.60;;;;;;;;;;5006656;28;20186;-55
2023/03/20 03:03:46;;;;;;;6.67;6.00;;;;;;;;;;5007517;28;21200;-55
2023/03/20 03:06:24;;;;;;;7.77;6.00;;;;;;;;;;5008969;28;20541;-55
2023/03/20 03:08:54;;;;;;;6.77;5.80;;;;;;;;;;5008321;28;20264;-55
2023/03/20 03:11:20;;;;;;;9.17;5.77;;;;;;;;;;5010344;28;20198;-55
2023/03/20 03:13:48;;;;;;;7.07;6.27;;;;;;;;;;5006955;28;20189;-55
2023/03/20 03:16:19;;;;;;;7.90;6.53;;;;;;;;;;5008142;28;20183;-55
2023/03/20 03:18:46;;;;;;;8.53;7.43;;;;;;;;;;5006868;28;20753;-55
2023/03/20 03:21:14;;;;;;;7.47;6.33;;;;;;;;;;5009039;28;20874;-55
2023/03/20 03:23:43;;;;;;;6.80;6.10;;;;;;;;;;5007704;28;20193;-55
2023/03/20 03:26:12;;;;;;;8.23;6.77;;;;;;;;;;5005823;28;20619;-55
2023/03/20 03:28:44;;;;;;;8.50;6.73;;;;;;;;;;5008278;28;20266;-55
2023/03/20 03:31:16;;;;;;;7.47;6.70;;;;;;;;;;5006974;28;20213;-55
2023/03/20 03:33:44;;;;;;;8.63;7.43;;;;;;;;;;5006742;28;20672;-55
2023/03/20 03:39:14;;;;;;;6.63;5.97;;;;;;;;;;5008708;28;20213;-55
2023/03/20 03:41:40;;;;;;;7.53;6.10;;;;;;;;;;5013714;28;20330;-55
2023/03/20 03:44:06;;;;;;;8.40;7.23;;;;;;;;;;5008832;28;20618;-56
2023/03/20 03:46:38;;;;;;;8.30;6.93;;;;;;;;;;5005056;28;20369;-55
2023/03/20 03:49:05;;;;;;;7.53;6.73;;;;;;;;;;5007401;28;20198;-55
2023/03/20 03:51:33;;;;;;;7.40;6.07;;;;;;;;;;5007646;28;20182;-55
2023/03/20 03:54:08;;;;;;;7.80;6.30;;;;;;;;;;5010678;28;20182;-54
2023/03/20 03:56:35;;;;;;;8.47;7.53;;;;;;;;;;5006411;28;20186;-55
2023/03/20 03:59:04;;;;;;;8.27;6.80;;;;;;;;;;5011391;28;20190;-55
2023/03/20 04:01:34;;;;;;;9.53;7.20;;;;;;;;;;5012431;28;20654;-55
2023/03/20 04:04:01;;;;;;;10.13;6.47;;;;;;;;;;5009239;28;20206;-55
2023/03/20 04:06:27;;;;;;;9.10;7.53;;;;;;;;;;5010475;28;20689;-55
2023/03/20 04:08:53;;;;;;;8.67;7.63;;;;;;;;;;5010957;28;20193;-55
2023/03/20 04:11:21;;;;;;;9.97;6.40;;;;;;;;;;5012693;28;20198;-56
2023/03/20 04:13:48;;;;;;;9.30;7.53;;;;;;;;;;5011191;28;20179;-55
2023/03/20 04:16:15;;;;;;;8.43;7.20;;;;;;;;;;5010700;28;20182;-55
2023/03/20 04:18:41;;;;;;;10.97;8.23;;;;;;;;;;5010192;28;20265;-55
2023/03/20 04:21:08;;;;;;;8.17;7.37;;;;;;;;;;5009016;28;20794;-55
2023/03/20 04:23:34;;;;;;;9.00;7.80;;;;;;;;;;5011783;28;20184;-55
2023/03/20 04:26:01;;;;;;;10.90;8.77;;;;;;;;;;5011537;28;20262;-55
2023/03/20 04:28:27;;;;;;;9.97;8.27;;;;;;;;;;5011126;28;20179;-55
2023/03/20 04:30:54;;;;;;;9.83;7.80;;;;;;;;;;5011089;28;20211;-55
2023/03/20 04:33:20;;;;;;;10.70;9.60;;;;;;;;;;5009449;28;20191;-55
2023/03/20 04:35:46;;;;;;;9.13;7.83;;;;;;;;;;5010821;28;20187;-55
2023/03/20 04:38:12;;;;;;;10.90;7.53;;;;;;;;;;5010101;28;20186;-55
2023/03/20 04:40:38;;;;;;;9.27;7.87;;;;;;;;;;5010984;28;20190;-53
2023/03/20 04:43:04;;;;;;;9.57;8.50;;;;;;;;;;5010847;28;20178;-53
2023/03/20 04:45:30;;;;;;;11.03;8.33;;;;;;;;;;5008723;28;20659;-53
2023/03/20 04:47:57;;;;;;;9.40;7.20;;;;;;;;;;5008310;28;20639;-53
2023/03/20 04:50:23;;;;;;;10.40;7.73;;;;;;;;;;5011787;28;20178;-53
2023/03/20 04:52:49;;;;;;;9.57;7.63;;;;;;;;;;5011215;28;20225;-53
2023/03/20 04:55:15;;;;;;;8.27;7.43;;;;;;;;;;5010429;28;20187;-53
2023/03/20 04:57:41;;;;;;;10.67;7.83;;;;;;;;;;5011110;28;20178;-53
2023/03/20 05:00:08;;;;;;;9.43;7.23;;;;;;;;;;5009934;28;20178;-53
2023/03/20 05:02:34;;;;;;;16.97;7.57;;;;;;;;;;5010255;28;20196;-53
2023/03/20 05:05:00;;;;;;;10.40;7.97;;;;;;;;;;5008613;28;20546;-53
2023/03/20 05:07:26;;;;;;;9.63;8.03;;;;;;;;;;5006880;28;20178;-54
2023/03/20 05:09:52;;;;;;;10.17;8.10;;;;;;;;;;5013059;28;20205;-53
2023/03/20 05:12:18;;;;;;;8.97;7.17;;;;;;;;;;5011788;28;20206;-53
2023/03/20 05:14:44;;;;;;;8.63;7.70;;;;;;;;;;5014732;28;20191;-53
2023/03/20 05:17:10;;;;;;;9.90;7.93;;;;;;;;;;5009146;28;20182;-53
2023/03/20 05:19:37;;;;;;;8.07;7.13;;;;;;;;;;5008128;28;20261;-53
2023/03/20 05:22:03;;;;;;;10.47;7.50;;;;;;;;;;5010640;28;20657;-53
2023/03/20 05:24:30;;;;;;;9.17;7.33;;;;;;;;;;5010158;28;20183;-53
2023/03/20 05:26:56;;;;;;;8.90;7.00;;;;;;;;;;5010438;28;20273;-53
2023/03/20 05:29:22;;;;;;;9.17;7.53;;;;;;;;;;5009952;28;20175;-53
2023/03/20 05:31:48;;;;;;;8.30;6.53;;;;;;;;;;5007688;28;20182;-53
2023/03/20 05:34:15;;;;;;;9.27;8.23;;;;;;;;;;5008232;28;20182;-53
2023/03/20 05:36:41;;;;;;;9.93;7.70;;;;;;;;;;5010251;28;20182;-53
2023/03/20 05:39:07;;;;;;;9.20;7.00;;;;;;;;;;5008680;28;20241;-53
2023/03/20 05:41:33;;;;;;;8.67;6.83;;;;;;;;;;5007204;28;20241;-53
2023/03/20 05:43:59;;;;;;;8.67;7.07;;;;;;;;;;5008292;28;20252;-54
2023/03/20 05:46:25;;;;;;;8.10;7.30;;;;;;;;;;5005468;28;20198;-53
2023/03/20 05:48:51;;;;;;;9.00;7.13;;;;;;;;;;5006619;28;20186;-53
2023/03/20 05:51:17;;;;;;;9.57;7.87;;;;;;;;;;5009290;28;20197;-53
2023/03/20 05:53:43;;;;;;;10.67;7.13;;;;;;;;;;5003766;28;20179;-54
2023/03/20 05:56:09;;;;;;;9.57;7.40;;;;;;;;;;5008798;28;20667;-53
2023/03/20 05:58:35;;;;;;;8.97;7.53;;;;;;;;;;5008156;28;20195;-53
2023/03/20 06:01:01;;;;;;;8.70;6.83;;;;;;;;;;5007009;28;20174;-54
2023/03/20 06:03:27;;;;;;;8.17;6.70;;;;;;;;;;5006614;28;20317;-53
2023/03/20 06:05:54;;;;;;;7.70;6.60;;;;;;;;;;5001894;28;20202;-53
2023/03/20 06:08:20;;;;;;;8.07;6.70;;;;;;;;;;5009419;28;20676;-53
2023/03/20 06:10:46;;;;;;;7.57;6.33;;;;;;;;;;5009530;28;20240;-53
2023/03/20 06:13:12;;;;;;;8.97;7.57;;;;;;;;;;5009961;28;20181;-54
2023/03/20 06:15:38;;;;;;;7.87;6.80;;;;;;;;;;5006130;28;20186;-54
2023/03/20 06:18:04;;;;;;;7.97;6.87;;;;;;;;;;5008678;28;20606;-54
2023/03/20 06:20:30;;;;;;;8.47;6.33;;;;;;;;;;5006382;28;20266;-53
2023/03/20 06:22:56;;;;;;;8.03;6.83;;;;;;;;;;5005374;28;20523;-53
2023/03/20 06:25:22;;;;;;;7.97;6.53;;;;;;;;;;5008352;28;20206;-54
2023/03/20 06:27:49;;;;;;;9.17;7.37;;;;;;;;;;5013301;28;20173;-53
2023/03/20 06:30:15;;;;;;;8.10;6.13;;;;;;;;;;5008317;28;20545;-54
2023/03/20 06:32:41;;;;;;;7.40;6.63;;;;;;;;;;5006644;28;20186;-53
2023/03/20 06:35:08;;;;;;;7.40;6.50;;;;;;;;;;5009179;28;20185;-54
2023/03/20 06:37:35;;;;;;;7.10;5.90;;;;;;;;;;5007777;28;20183;-53
2023/03/20 06:40:02;;;;;;;10.57;6.43;;;;;;;;;;5006016;28;20360;-54
2023/03/20 06:42:28;;;;;;;8.77;6.37;;;;;;;;;;5003182;28;20332;-53
2023/03/20 06:44:55;;;;;;;8.23;6.87;;;;;;;;;;5008637;28;20265;-53
2023/03/20 06:47:21;;;;;;;7.43;6.63;;;;;;;;;;5006492;28;20664;-53
2023/03/20 06:49:47;;;;;;;8.80;6.67;;;;;;;;;;5007044;28;20354;-53
2023/03/20 06:52:15;;;;;;;9.00;6.27;;;;;;;;;;5007697;28;20171;-54
2023/03/20 06:54:41;;;;;;;7.90;6.37;;;;;;;;;;5001346;28;20189;-53
2023/03/20 06:57:07;;;;;;;7.93;7.13;;;;;;;;;;5007014;28;20178;-53
2023/03/20 06:59:33;;;;;;;7.50;5.73;;;;;;;;;;5007418;28;20181;-53
2023/03/20 07:02:00;;;;;;;7.73;6.43;;;;;;;;;;5013848;28;20178;-53
2023/03/20 07:04:26;;;;;;;7.13;6.13;;;;;;;;;;5005873;28;20638;-53
2023/03/20 07:06:52;;;;;;;7.23;6.53;;;;;;;;;;5008356;28;20205;-53
2023/03/20 07:09:20;;;;;;;8.03;6.30;;;;;;;;;;5005490;28;20212;-53
2023/03/20 07:11:47;;;;;;;7.77;6.20;;;;;;;;;;5006700;28;20218;-53
2023/03/20 07:14:13;;;;;;;7.63;6.37;;;;;;;;;;5010767;28;20178;-53
2023/03/20 07:16:39;;;;;;;8.37;6.83;;;;;;;;;;5006826;28;20265;-53
2023/03/20 07:19:05;;;;;;;7.40;6.30;;;;;;;;;;5007556;28;20249;-53
2023/03/20 07:21:31;;;;;;;7.03;6.33;;;;;;;;;;5004069;28;20540;-52
2023/03/20 07:23:58;;;;;;;8.03;7.03;;;;;;;;;;5008274;28;20709;-54
2023/03/20 07:26:24;;;;;;;8.00;7.03;;;;;;;;;;5006688;28;20186;-53
2023/03/20 07:28:50;;;;;;;6.87;5.70;;;;;;;;;;5013692;28;20186;-54
2023/03/20 07:31:21;;;;;;;9.10;6.90;;;;;;;;;;5006523;28;20182;-53
2023/03/20 07:33:47;;;;;;;8.20;7.33;;;;;;;;;;5007938;28;20174;-53
2023/03/20 07:36:13;;;;;;;7.93;6.77;;;;;;;;;;5007201;28;20194;-54
2023/03/20 07:38:39;;;;;;;7.10;6.33;;;;;;;;;;5014688;28;20230;-54
2023/03/20 07:41:05;;;;;;;6.57;5.83;;;;;;;;;;5016144;28;20261;-54
2023/03/20 07:43:31;;;;;;;7.17;6.23;;;;;;;;;;5012557;28;20190;-54
2023/03/20 07:45:57;;;;;;;7.37;5.97;;;;;;;;;;5005785;28;20194;-53
2023/03/20 07:48:24;;;;;;;8.77;5.70;;;;;;;;;;5010470;28;20179;-53
2023/03/20 07:50:50;;;;;;;8.70;6.73;;;;;;;;;;5006272;28;20183;-53
2023/03/20 07:53:16;;;;;;;10.07;6.93;;;;;;;;;;5012586;28;20244;-53
2023/03/20 07:55:44;;;;;;;7.37;6.40;;;;;;;;;;5010405;28;20191;-53
2023/03/20 07:58:10;;;;;;;8.23;6.60;;;;;;;;;;5004012;28;20277;-53
2023/03/20 08:00:36;;;;;;;8.77;6.57;;;;;;;;;;5014870;28;20202;-53
2023/03/20 08:03:02;;;;;;;10.37;6.80;;;;;;;;;;5007619;28;20665;-53
2023/03/20 08:05:29;;;;;;;7.70;6.83;;;;;;;;;;5014358;28;20210;-53
2023/03/20 08:07:55;;;;;;;12.10;7.20;;;;;;;;;;5009881;28;20182;-53
2023/03/20 08:10:21;;;;;;;8.13;6.87;;;;;;;;;;5009915;28;20182;-53
2023/03/20 08:12:47;;;;;;;8.33;6.67;;;;;;;;;;5006248;28;20292;-53
2023/03/20 08:15:14;;;;;;;11.87;6.13;;;;;;;;;;5015197;28;20270;-53
2023/03/20 08:17:43;;;;;;;7.00;6.20;;;;;;;;;;5008684;28;20202;-53
2023/03/20 08:20:10;;;;;;;10.40;6.93;;;;;;;;;;5003265;28;20230;-53
2023/03/20 08:22:36;;;;;;;8.37;6.57;;;;;;;;;;5008166;28;20645;-53
2023/03/20 08:25:02;;;;;;;11.40;6.90;;;;;;;;;;5009404;28;20191;-53
2023/03/20 08:27:28;;;;;;;8.73;6.40;;;;;;;;;;5008879;28;20269;-54
2023/03/20 08:29:54;;;;;;;9.27;7.03;;;;;;;;;;5007047;28;20266;-53
2023/03/20 08:32:20;;;;;;;7.60;6.60;;;;;;;;;;5009449;28;20646;-53
2023/03/20 08:34:46;;;;;;;9.00;6.63;;;;;;;;;;5004785;28;20201;-54
2023/03/20 08:37:13;;;;;;;7.13;6.23;;;;;;;;;;5011943;28;20187;-53
2023/03/20 08:39:39;;;;;;;7.27;6.23;;;;;;;;;;5012076;28;20179;-53
2023/03/20 08:42:06;;;;;;;8.83;6.80;;;;;;;;;;5010642;28;20182;-54
2023/03/20 08:44:32;;;;;;;8.83;6.47;;;;;;;;;;5011552;28;20182;-53
2023/03/20 08:46:59;;;;;;;7.40;5.43;;;;;;;;;;5006689;28;20202;-53
2023/03/20 08:49:25;;;;;;;8.23;5.87;;;;;;;;;;5009247;28;20182;-54
2023/03/20 08:51:51;;;;;;;7.80;6.20;;;;;;;;;;5002244;28;20204;-53
2023/03/20 08:54:17;;;;;;;8.90;6.43;;;;;;;;;;5010459;28;20171;-53
2023/03/20 08:56:44;;;;;;;9.27;6.07;;;;;;;;;;5006458;28;20194;-54
2023/03/20 08:59:11;;;;;;;7.53;5.47;;;;;;;;;;5010862;28;20668;-53
2023/03/20 09:01:37;;;;;;;8.10;5.60;;;;;;;;;;5007175;28;20178;-53
2023/03/20 09:04:04;;;;;;;7.50;5.90;;;;;;;;;;5007659;28;20518;-54
2023/03/20 09:06:31;;;;;;;8.30;5.43;;;;;;;;;;5010969;28;20213;-53
2023/03/20 09:08:57;;;;;;;6.77;5.07;;;;;;;;;;5006564;28;20178;-54
2023/03/20 09:11:23;;;;;;;6.87;4.80;;;;;;;;;;5004906;28;20209;-54
2023/03/20 09:13:49;;;;;;;8.83;5.53;;;;;;;;;;5007971;28;20185;-54
2023/03/20 09:16:15;;;;;;;9.07;5.07;;;;;;;;;;5007099;28;20217;-53
2023/03/20 09:18:41;;;;;;;7.20;4.90;;;;;;;;;;5009403;28;20174;-53
2023/03/20 09:21:08;;;;;;;7.47;4.50;;;;;;;;;;5006719;28;20932;-54
2023/03/20 09:23:34;;;;;;;8.70;4.50;;;;;;;;;;5007138;28;20204;-53
2023/03/20 09:26:00;;;;;;;7.20;4.33;;;;;;;;;;5008177;28;20317;-54
2023/03/20 09:28:26;;;;;;;7.50;4.60;;;;;;;;;;5007803;28;20178;-54
2023/03/20 09:30:56;;;;;;;7.47;5.13;;;;;;;;;;5005622;28;20170;-53
2023/03/20 09:33:22;;;;;;;6.77;4.23;;;;;;;;;;5011494;28;20174;-54
2023/03/20 09:35:48;;;;;;;6.67;3.90;;;;;;;;;;5022329;28;20182;-54
2023/03/20 09:38:14;;;;;;;4.77;4.00;;;;;;;;;;5020105;28;20177;-53
2023/03/20 09:40:40;;;;;;;4.83;3.97;;;;;;;;;;5012828;28;20236;-54
2023/03/20 09:43:17;;;;;;;7.47;4.40;;;;;;;;;;5014378;28;20182;-54
2023/03/20 09:45:43;;;;;;;3.73;3.27;;;;;;;;;;5012874;28;20603;-54
2023/03/20 09:48:15;;;;;;;4.83;3.07;;;;;;;;;;5013258;28;20208;-54
2023/03/20 09:50:49;;;;;;;4.70;3.07;;;;;;;;;;5009765;28;20205;-54
2023/03/20 09:53:22;;;;;;;6.80;3.60;;;;;;;;;;5020027;28;20170;-54
2023/03/20 09:55:49;;;;;;;4.03;3.13;;;;;;;;;;5015323;28;20201;-54
2023/03/20 09:58:20;;;;;;;5.47;3.27;;;;;;;;;;5007853;28;20182;-54
2023/03/20 10:00:46;;;;;;;5.77;2.87;;;;;;;;;;5021931;28;20178;-54
2023/03/20 10:03:18;;;;;;;3.60;2.73;;;;;;;;;;5019007;28;20660;-55
2023/03/20 10:05:47;;;;;;;5.37;3.13;;;;;;;;;;5010349;28;20205;-54
2023/03/20 10:08:17;;;;;;;4.00;3.00;;;;;;;;;;5025090;28;20177;-54
2023/03/20 10:10:43;;;;;;;4.13;2.77;;;;;;;;;;5010081;28;20182;-54
2023/03/20 10:13:24;;;;;;;4.30;2.83;;;;;;;;;;5016053;28;20204;-54
2023/03/20 10:15:57;;;;;;;5.37;2.73;;;;;;;;;;5014077;28;20512;-54
2023/03/20 10:18:27;;;;;;;3.70;2.43;;;;;;;;;;5015414;28;20894;-54
2023/03/20 10:21:04;;;;;;;2.93;2.57;;;;;;;;;;5021257;28;20229;-54
2023/03/20 10:23:30;;;;;;;4.70;2.83;;;;;;;;;;5007839;28;20186;-54
2023/03/20 10:26:00;;;;;;;3.10;2.70;;;;;;;;;;5014244;28;20206;-54
2023/03/20 10:28:39;;;;;;;4.47;2.80;;;;;;;;;;5007757;28;20190;-54
2023/03/20 10:31:20;;;;;;;3.23;2.93;;;;;;;;;;5002458;28;20301;-54
2023/03/20 10:33:46;;;;;;;3.57;3.07;;;;;;;;;;5002249;28;20233;-54
2023/03/20 10:36:17;;;;;;;3.77;2.47;;;;;;;;;;5005935;28;20179;-54
2023/03/20 10:38:51;;;;;;;3.63;2.60;;;;;;;;;;5005743;28;20190;-54
2023/03/20 10:41:19;;;;;;;3.50;3.10;;;;;;;;;;5006190;28;20198;-54
2023/03/20 10:43:47;;;;;;;2.70;2.50;;;;;;;;;;5004178;28;20183;-54
2023/03/20 10:46:18;;;;;;;3.80;2.93;;;;;;;;;;5005330;28;20202;-54
2023/03/20 10:48:47;;;;;;;4.80;3.00;;;;;;;;;;5005633;28;20183;-54
2023/03/20 10:51:17;;;;;;;4.13;2.87;;;;;;;;;;5003790;28;20187;-54
2023/03/20 10:53:46;;;;;;;6.17;2.73;;;;;;;;;;5005098;28;20190;-54
2023/03/20 10:56:14;;;;;;;4.93;2.47;;;;;;;;;;5011843;28;20174;-54
2023/03/20 10:58:42;;;;;;;4.23;3.10;;;;;;;;;;5013924;28;20189;-54
2023/03/20 11:01:08;;;;;;;3.17;2.80;;;;;;;;;;5007355;28;20187;-54
2023/03/20 11:03:40;;;;;;;5.37;3.07;;;;;;;;;;5004243;28;20597;-55
2023/03/20 11:06:14;;;;;;;3.93;2.70;;;;;;;;;;5007556;28;20724;-54
2023/03/20 11:08:41;;;;;;;4.40;2.40;;;;;;;;;;5011584;28;20201;-54
2023/03/20 11:11:08;;;;;;;3.83;2.43;;;;;;;;;;5005977;28;20666;-55
2023/03/20 11:13:35;;;;;;;4.00;2.60;;;;;;;;;;5009513;28;20271;-54
2023/03/20 11:16:20;;;;;;;2.63;2.13;;;;;;;;;;5007461;28;20524;-54
2023/03/20 11:18:51;;;;;;;2.97;2.07;;;;;;;;;;5005251;28;20186;-54
2023/03/20 11:21:22;;;;;;;3.73;2.70;;;;;;;;;;5006920;28;20186;-54
2023/03/20 11:23:48;;;;;;;2.57;2.10;;;;;;;;;;5005226;28;20249;-54
2023/03/20 11:26:16;;;;;;;3.07;2.37;;;;;;;;;;5001916;28;20210;-54
2023/03/20 11:28:47;;;;;;;4.33;2.40;;;;;;;;;;5009955;28;20201;-54
2023/03/20 11:31:13;;;;;;;3.87;2.53;;;;;;;;;;5015462;28;20577;-54
2023/03/20 11:33:43;;;;;;;3.93;2.70;;;;;;;;;;5015429;28;20182;-55
2023/03/20 11:36:11;;;;;;;6.27;2.83;;;;;;;;;;5017272;28;20284;-54
2023/03/20 11:38:43;;;;;;;3.63;2.33;;;;;;;;;;5008382;28;20232;-54
2023/03/20 11:41:25;;;;;;;5.33;2.50;;;;;;;;;;5009522;28;20184;-54
2023/03/20 11:43:51;;;;;;;2.87;2.20;;;;;;;;;;5007546;28;20189;-54
2023/03/20 11:46:20;;;;;;;4.60;2.40;;;;;;;;;;4999839;28;20856;-54
2023/03/20 11:48:46;;;;;;;3.70;2.50;;;;;;;;;;5002734;28;20182;-54
2023/03/20 11:51:18;;;;;;;3.40;2.50;;;;;;;;;;5008931;28;20167;-54
2023/03/20 11:53:47;;;;;;;3.47;2.53;;;;;;;;;;5007774;28;20197;-54
2023/03/20 11:56:15;;;;;;;5.87;2.73;;;;;;;;;;5008347;28;20183;-54
2023/03/20 11:58:58;;;;;;;3.07;2.40;;;;;;;;;;5006159;28;20273;-54
2023/03/20 12:01:26;;;;;;;3.30;2.33;;;;;;;;;;5000775;28;20182;-54
2023/03/20 12:03:55;;;;;;;2.53;2.33;;;;;;;;;;5007807;28;20174;-54
2023/03/20 12:06:22;;;;;;;3.60;2.50;;;;;;;;;;5008679;28;20206;-54
2023/03/20 12:08:51;;;;;;;6.30;2.83;;;;;;;;;;5004598;28;20179;-54
2023/03/20 12:11:20;;;;;;;4.30;2.67;;;;;;;;;;5008168;28;20286;-54
2023/03/20 12:13:48;;;;;;;5.53;2.43;;;;;;;;;;5009037;28;20197;-54
2023/03/20 12:16:17;;;;;;;5.47;2.53;;;;;;;;;;5001541;28;20176;-54
2023/03/20 12:18:45;;;;;;;3.97;2.37;;;;;;;;;;5006632;28;20229;-55
2023/03/20 12:21:29;;;;;;;3.53;2.30;;;;;;;;;;5000232;28;20542;-54
2023/03/20 12:24:19;;;;;;;6.43;2.90;;;;;;;;;;5010774;28;20265;-54
2023/03/20 12:26:54;;;;;;;4.00;2.30;;;;;;;;;;5012526;28;20219;-54
2023/03/20 12:29:26;;;;;;;2.73;2.33;;;;;;;;;;5006296;28;20654;-54
2023/03/20 12:31:57;;;;;;;4.00;2.93;;;;;;;;;;5010186;28;20174;-54
2023/03/20 12:34:31;;;;;;;5.43;2.53;;;;;;;;;;5010550;28;20526;-54
2023/03/20 12:36:58;;;;;;;5.70;2.93;;;;;;;;;;5010283;28;20686;-54
2023/03/20 12:39:33;;;;;;;3.37;2.53;;;;;;;;;;5010301;28;20265;-54
2023/03/20 12:42:17;;;;;;;5.40;2.80;;;;;;;;;;5010015;28;20719;-54
2023/03/20 12:45:00;;;;;;;5.50;2.70;;;;;;;;;;5010881;28;20182;-54
2023/03/20 12:47:38;;;;;;;4.33;2.90;;;;;;;;;;5010507;28;20538;-54
2023/03/20 12:50:23;;;;;;;3.70;2.27;;;;;;;;;;5010189;28;20705;-54
2023/03/20 12:52:55;;;;;;;3.30;2.27;;;;;;;;;;5005846;28;20705;-54
2023/03/20 12:55:32;;;;;;;3.00;2.60;;;;;;;;;;5011231;28;20193;-54
2023/03/20 12:57:59;;;;;;;5.67;3.17;;;;;;;;;;5004241;28;20205;-54
2023/03/20 13:00:37;;;;;;;4.30;2.50;;;;;;;;;;5011829;28;20183;-54
2023/03/20 13:03:21;;;;;;;4.57;2.40;;;;;;;;;;5012709;28;20182;-54
2023/03/20 13:05:53;;;;;;;5.53;3.00;;;;;;;;;;5008907;28;20662;-54
2023/03/20 13:08:22;;;;;;;3.93;2.67;;;;;;;;;;5008561;28;20268;-54
2023/03/20 13:10:54;;;;;;;3.00;2.67;;;;;;;;;;5010088;28;20203;-54
2023/03/20 13:13:45;;;;;;;4.30;2.43;;;;;;;;;;5008027;28;20267;-54
2023/03/20 13:16:14;;;;;;;4.37;3.07;;;;;;;;;;5011072;28;20183;-53
2023/03/20 13:18:45;;;;;;;3.87;2.50;;;;;;;;;;5008628;28;20568;-54
2023/03/20 13:21:17;;;;;;;8.47;3.67;;;;;;;;;;5011444;28;20186;-54
2023/03/20 13:23:46;;;;;;;3.23;2.33;;;;;;;;;;5009064;28;20190;-53
2023/03/20 13:26:16;;;;;;;3.87;2.70;;;;;;;;;;5008442;28;20233;-53
2023/03/20 13:28:42;;;;;;;3.50;2.77;;;;;;;;;;5008264;28;20273;-52
2023/03/20 13:31:14;;;;;;;3.20;2.57;;;;;;;;;;5009853;28;20602;-53
2023/03/20 13:33:40;;;;;;;3.97;2.33;;;;;;;;;;5007867;28;20548;-54
2023/03/20 13:36:09;;;;;;;4.07;2.67;;;;;;;;;;5006678;28;20198;-54
2023/03/20 13:39:02;;;;;;;2.13;1.93;;;;;;;;;;5009206;28;20542;-54
2023/03/20 13:41:28;;;;;;;3.87;2.90;;;;;;;;;;5007766;28;20210;-54
2023/03/20 13:44:00;;;;;;;5.50;2.93;;;;;;;;;;5017084;28;20189;-53
2023/03/20 13:46:26;;;;;;;4.27;3.27;;;;;;;;;;5006388;28;20289;-54
2023/03/20 13:48:54;;;;;;;3.00;2.50;;;;;;;;;;5008335;28;20791;-53
2023/03/20 13:51:41;;;;;;;3.20;2.43;;;;;;;;;;5003396;28;20206;-54
2023/03/20 13:54:10;;;;;;;6.30;3.33;;;;;;;;;;5005891;28;20549;-54
2023/03/20 13:56:39;;;;;;;6.57;3.67;;;;;;;;;;5008156;28;20178;-57
2023/03/20 13:59:15;;;;;;;3.90;2.80;;;;;;;;;;5007912;28;20212;-53
2023/03/20 14:01:49;;;;;;;4.03;2.93;;;;;;;;;;5004852;28;20190;-53
2023/03/20 14:04:18;;;;;;;5.13;2.77;;;;;;;;;;5006488;28;20211;-54
2023/03/20 14:06:57;;;;;;;5.47;2.73;;;;;;;;;;5005656;28;20400;-53
2023/03/20 14:09:33;;;;;;;6.17;2.80;;;;;;;;;;5005763;28;20181;-53
2023/03/20 14:12:04;;;;;;;2.97;2.63;;;;;;;;;;5008237;28;20726;-53
2023/03/20 14:14:32;;;;;;;4.00;2.87;;;;;;;;;;5010534;28;20179;-53
2023/03/20 14:17:16;;;;;;;3.13;2.40;;;;;;;;;;5007037;28;20684;-54
2023/03/20 14:19:42;;;;;;;4.83;2.73;;;;;;;;;;5009599;28;20245;-54
2023/03/20 14:22:14;;;;;;;5.27;3.10;;;;;;;;;;5005389;28;20191;-53
2023/03/20 14:24:50;;;;;;;5.30;3.40;;;;;;;;;;5002810;28;20672;-54
2023/03/20 14:27:18;;;;;;;4.07;3.10;;;;;;;;;;5000570;28;20302;-54
2023/03/20 14:29:44;;;;;;;5.97;3.30;;;;;;;;;;5012911;28;20178;-53
2023/03/20 14:32:14;;;;;;;3.97;3.07;;;;;;;;;;5001170;28;20242;-54
2023/03/20 14:34:50;;;;;;;4.47;3.13;;;;;;;;;;4996852;28;20242;-53
2023/03/20 14:37:30;;;;;;;3.90;2.90;;;;;;;;;;5004273;28;20214;-53
2023/03/20 14:40:15;;;;;;;3.43;3.13;;;;;;;;;;5000789;28;20186;-53
2023/03/20 14:42:47;;;;;;;6.37;3.20;;;;;;;;;;5001989;28;20190;-54
2023/03/20 14:45:15;;;;;;;5.10;2.83;;;;;;;;;;5002481;28;20178;-54
2023/03/20 14:47:41;;;;;;;5.33;2.50;;;;;;;;;;5002773;28;20243;-53
2023/03/20 14:50:16;;;;;;;3.87;2.63;;;;;;;;;;5003914;28;20653;-53
2023/03/20 14:52:52;;;;;;;4.53;2.53;;;;;;;;;;5004135;28;20167;-54
2023/03/20 14:55:25;;;;;;;6.40;2.90;;;;;;;;;;5009019;28;20189;-53
2023/03/20 14:57:51;;;;;;;4.73;3.13;;;;;;;;;;5003253;28;20182;-53